Nichols, Minnesota
Current Conditions -  °F | °C
As of 10:31 AM on Friday 24 Oct 2014 (Local Time) from KEVM Reporting Station
Clear Clear  
Wind Chill: 52°   Ceiling: Unl
Heat Index: 52°   Visibility: 10mi
Dew Point: 52°   Wind: 10mph
Humidity: 100%   Direction: 210°SSW
Pressure: 29.82"   Gusts: NA
Location:  47.4996°N, 92.6723°W
Report Text: KEVM 241531Z AUTO 21009KT 10SM CLR 11/11 A2982 RMK AO2
Loading
Personal Weather Stations






























Interactive Weather Map
Tropical Storm Tracking
New forecast layout! Learn more

10-Day Weather Forecast

Advertisements
Track Severe Weather on mobile